John C. Munro Hamilton International Airport
CYHM : now visible

Airfield :











YOU CAN JOIN US ON...

 
LOGIN :

Register | Disclaimer

   EN    FR    IT 

 









Legend :    VFR   Marginal VFR   IFR   Intensive IFR   Very Intensive IFR
Visi :
Ceiling :
>= 8 km
>= 3000ft
5 to 8 km
1000 to 3000 ft
1500m to 5 km
500 to 1000 ft
800 to 1500m
200 to 500 ft
< 800m
< 200 ft
Symbols :   Thunderstorms  Fog  Heavy snow  Heavy precipitations  Wind > 20 kt






- Airport Elevation : 780 ft
- IATA code : YHM


CYHM - John C. Munro Hamilton International

CURRENT METAR :
  • 122000Z 19009G16KT 15SM BKN140 OVC180 M01/M07 A3045 RMK AC6AS2 SLP326

EXPIRED METARs :
  • 121900Z 20011G17KT 15SM SCT022 BKN160 BKN250 M01/M07 A3047 RMK SC3AC2CI2 SLP333

TAF TAF CYHM
Valid from the 12 at 18:00 until the 13 at 18:00 UTC


121738Z 1218/1318 17008KT P6SM BKN025 BKN160
TEMPO 1218/1221 BKN020 BKN160
FM122100 17010KT P6SM FEW020 BKN240
BECMG 1313/1315 19012G22KT RMK NXT FCST BY 130000Z



MET'MAP, your aeronautical weather chart ! - Copyright ORBIFLY December 2007 - Disclaimer

ORBIFLY MET'MAP TEAM :

Programming & Development : Alexandra Zaïnal
Concept & original design : Baudouin d'Aumeries
Assistance for programming : Marc-Olivier Méhu
Technical & hardware support : Manuel Goepfert

Contact : metmap@orbifly.com




SOURCES & CREDITS :

   NOAA       Earth
Advisory